createdAt,value
2023-04-28T00:01:42.014Z,77.45
2023-04-28T00:04:09.097Z,77.67
2023-04-28T00:06:37.234Z,77.98
2023-04-28T00:09:04.215Z,78.44
2023-04-28T00:11:31.017Z,78.83
2023-04-28T00:13:58.085Z,79.26
2023-04-28T00:16:24.931Z,80.03
2023-04-28T00:18:52.087Z,80.69
2023-04-28T00:21:19.115Z,80.90
2023-04-28T00:23:46.038Z,81.33
2023-04-28T00:26:12.776Z,81.56
2023-04-28T00:28:40.555Z,82.04
2023-04-28T00:31:12.591Z,82.29
2023-04-28T00:33:43.606Z,82.67
2023-04-28T00:36:11.191Z,82.95
2023-04-28T00:38:37.993Z,83.24
2023-04-28T00:41:04.849Z,83.53
2023-04-28T00:43:31.625Z,83.82
2023-04-28T00:45:58.496Z,84.11
2023-04-28T00:48:25.475Z,84.55
2023-04-28T00:50:52.339Z,84.64
2023-04-28T00:53:19.086Z,84.91
2023-04-28T00:55:45.896Z,85.11
2023-04-28T00:58:12.631Z,85.36
2023-04-28T01:00:39.491Z,85.74
2023-04-28T01:03:06.618Z,86.03
2023-04-28T01:05:34.025Z,86.24
2023-04-28T01:08:00.853Z,86.58
2023-04-28T01:10:27.588Z,86.76
2023-04-28T01:12:55.039Z,87.18
2023-04-28T01:15:21.982Z,87.58
2023-04-28T01:17:51.272Z,88.27
2023-04-28T01:20:18.264Z,88.70
2023-04-28T01:22:45.110Z,89.21
2023-04-28T01:25:11.925Z,89.50
2023-04-28T01:27:38.685Z,89.72
2023-04-28T01:30:06.909Z,89.94
2023-04-28T01:32:34.049Z,90.22
2023-04-28T01:35:03.544Z,90.30
2023-04-28T01:37:30.689Z,90.48
2023-04-28T01:39:57.526Z,90.58
2023-04-28T01:42:25.388Z,90.73
2023-04-28T01:44:53.163Z,90.93
2023-04-28T01:47:20.617Z,91.26
2023-04-28T01:49:48.391Z,91.60
2023-04-28T01:52:15.332Z,91.68
2023-04-28T01:54:42.304Z,91.90
2023-04-28T01:57:09.689Z,92.22
2023-04-28T01:59:36.904Z,92.22
2023-04-28T02:02:05.659Z,92.55
2023-04-28T02:04:33.084Z,92.59
2023-04-28T02:06:59.930Z,92.70
2023-04-28T02:09:27.273Z,93.02
2023-04-28T02:11:53.990Z,93.15
2023-04-28T02:14:21.382Z,93.42
2023-04-28T02:16:48.153Z,93.66
2023-04-28T02:19:15.679Z,93.88
2023-04-28T02:21:43.204Z,94.30
2023-04-28T02:24:10.067Z,94.99
2023-04-28T02:26:36.820Z,95.16
2023-04-28T02:29:06.625Z,95.48
2023-04-28T02:31:33.438Z,95.97
2023-04-28T02:34:00.406Z,95.99
2023-04-28T02:36:27.910Z,96.27
2023-04-28T02:38:54.743Z,96.50
2023-04-28T02:41:21.568Z,96.71
2023-04-28T02:43:48.423Z,96.55
2023-04-28T02:46:15.284Z,96.72
2023-04-28T02:48:42.497Z,96.76
2023-04-28T02:51:10.777Z,96.66
2023-04-28T02:53:38.063Z,96.58
2023-04-28T02:56:05.285Z,96.49
2023-04-28T02:58:32.986Z,96.54
2023-04-28T03:00:59.924Z,96.64
2023-04-28T03:03:26.895Z,96.69
2023-04-28T03:05:53.803Z,96.62
2023-04-28T03:08:21.154Z,96.39
2023-04-28T03:10:48.012Z,96.46
2023-04-28T03:13:15.076Z,96.22
2023-04-28T03:15:42.431Z,96.04
2023-04-28T03:18:09.438Z,95.87
2023-04-28T03:20:36.614Z,95.78
2023-04-28T03:23:03.720Z,95.91
2023-04-28T03:25:30.651Z,95.35
2023-04-28T03:27:57.600Z,94.70
2023-04-28T03:30:24.356Z,94.08
2023-04-28T03:32:51.261Z,93.16
2023-04-28T03:35:18.244Z,92.10
2023-04-28T03:37:44.999Z,90.44
2023-04-28T03:40:12.713Z,88.70
2023-04-28T03:42:55.001Z,87.18
2023-04-28T03:45:31.986Z,85.82
2023-04-28T03:47:59.125Z,84.50
2023-04-28T03:50:26.802Z,82.93
2023-04-28T03:52:54.296Z,81.61
2023-04-28T03:55:21.158Z,81.66
2023-04-28T03:57:47.989Z,82.01
2023-04-28T04:00:14.930Z,82.48
2023-04-28T04:02:46.035Z,82.45
2023-04-28T04:05:13.079Z,80.86
2023-04-28T04:07:41.030Z,79.21
2023-04-28T04:10:08.511Z,77.36
2023-04-28T04:12:36.283Z,76.04
2023-04-28T04:15:04.196Z,75.34
2023-04-28T04:17:31.744Z,75.20
2023-04-28T04:19:58.594Z,75.09
2023-04-28T04:22:27.178Z,76.11
2023-04-28T04:24:53.923Z,76.75
2023-04-28T04:27:20.884Z,77.65
2023-04-28T04:29:47.735Z,78.39
2023-04-28T04:32:15.022Z,79.18
2023-04-28T04:34:42.378Z,79.67
2023-04-28T04:37:09.658Z,80.07
2023-04-28T04:39:40.884Z,79.91
2023-04-28T04:42:23.168Z,79.16
2023-04-28T04:45:12.461Z,78.17
2023-04-28T04:47:39.683Z,76.24
2023-04-28T04:50:07.621Z,74.94
2023-04-28T04:52:34.366Z,75.05
2023-04-28T05:00:29.475Z,74.02
2023-04-28T05:02:57.150Z,74.08
2023-04-28T05:05:24.208Z,74.06
2023-04-28T05:08:12.854Z,73.21
2023-04-28T05:10:40.478Z,72.84
2023-04-28T05:13:07.615Z,72.76
2023-04-28T05:15:34.825Z,73.29
2023-04-28T05:25:29.046Z,72.99
2023-04-28T05:27:56.564Z,73.79
2023-04-28T05:30:23.580Z,74.00
2023-04-28T05:32:51.334Z,73.22
2023-04-28T05:35:18.375Z,72.90
2023-04-28T05:37:45.432Z,72.69
2023-04-28T05:40:12.757Z,73.37
2023-04-28T05:42:40.037Z,72.61
2023-04-28T05:45:07.603Z,71.99
2023-04-28T05:47:34.522Z,71.33
2023-04-28T05:50:01.377Z,73.40
2023-04-28T05:52:28.319Z,71.97
2023-04-28T05:54:55.075Z,71.92
2023-04-28T05:57:22.223Z,71.90
2023-04-28T05:59:49.089Z,71.63
2023-04-28T06:02:17.141Z,71.15
2023-04-28T06:04:44.760Z,70.33
2023-04-28T06:07:11.835Z,68.73
2023-04-28T06:09:38.806Z,68.36
2023-04-28T06:12:06.314Z,66.96
2023-04-28T06:14:33.293Z,67.01
2023-04-28T06:17:00.590Z,68.72
2023-04-28T06:19:27.471Z,67.32
2023-04-28T06:21:54.301Z,67.48
2023-04-28T06:24:21.096Z,66.32
2023-04-28T06:26:48.259Z,67.12
2023-04-28T06:29:15.072Z,68.28
2023-04-28T06:31:41.882Z,67.62
2023-04-28T06:34:08.862Z,67.44
2023-04-28T06:36:36.266Z,66.29
2023-04-28T06:39:04.418Z,66.04
2023-04-28T06:41:33.228Z,66.30
2023-04-28T06:44:01.196Z,66.96
2023-04-28T06:46:30.196Z,65.96
2023-04-28T06:48:57.503Z,66.12
2023-04-28T06:51:24.582Z,65.26
2023-04-28T06:53:53.271Z,65.01
2023-04-28T06:59:20.050Z,65.92
2023-04-28T07:01:48.058Z,66.33
2023-04-28T07:04:15.418Z,65.66
2023-04-28T07:06:42.666Z,65.89
2023-04-28T07:09:09.621Z,64.07
2023-04-28T07:11:37.167Z,60.89
2023-04-28T07:14:03.967Z,63.81
2023-04-28T07:16:30.843Z,63.16
2023-04-28T07:18:57.571Z,61.65
2023-04-28T07:21:24.332Z,60.68
2023-04-28T07:23:51.249Z,59.99
2023-04-28T07:26:18.013Z,59.53
2023-04-28T07:28:45.033Z,60.02
2023-04-28T07:31:11.852Z,57.92
2023-04-28T07:33:38.639Z,57.48
2023-04-28T07:36:06.148Z,58.23
2023-04-28T07:38:36.025Z,58.72
2023-04-28T07:41:03.734Z,57.87
2023-04-28T07:43:30.991Z,57.82
2023-04-28T07:45:58.000Z,56.79
2023-04-28T07:48:24.935Z,55.64
2023-04-28T07:50:51.716Z,56.18
2023-04-28T07:53:18.530Z,55.90
2023-04-28T07:59:01.869Z,53.73
2023-04-28T08:01:28.747Z,52.85
2023-04-28T08:03:55.833Z,52.25
2023-04-28T08:06:22.855Z,53.12
2023-04-28T08:08:49.983Z,53.61
2023-04-28T08:11:16.794Z,54.79
2023-04-28T08:13:43.537Z,54.26
2023-04-28T08:16:10.319Z,53.56
2023-04-28T08:18:37.291Z,52.40
2023-04-28T08:21:04.620Z,52.03
2023-04-28T08:23:32.195Z,51.35
2023-04-28T08:25:58.939Z,50.66
2023-04-28T08:28:26.273Z,50.06
2023-04-28T08:30:54.473Z,50.75
2023-04-28T08:33:21.502Z,52.04
2023-04-28T08:35:48.250Z,51.65
2023-04-28T08:38:17.661Z,51.17
2023-04-28T08:40:44.519Z,52.70
2023-04-28T08:43:11.700Z,54.10
2023-04-28T08:45:41.915Z,54.00
2023-04-28T08:48:20.350Z,53.21
2023-04-28T08:50:52.852Z,54.25
2023-04-28T08:53:26.072Z,53.80
2023-04-28T08:55:59.325Z,53.10
2023-04-28T08:58:27.021Z,53.84
2023-04-28T09:00:54.622Z,53.88
2023-04-28T09:03:22.157Z,53.20
2023-04-28T09:05:49.269Z,52.59
2023-04-28T09:08:16.514Z,51.34
2023-04-28T09:10:43.366Z,51.27
2023-04-28T09:13:10.720Z,51.16
2023-04-28T09:15:41.382Z,51.89
2023-04-28T09:18:08.409Z,52.33
2023-04-28T09:20:35.918Z,51.64
2023-04-28T09:23:19.078Z,50.68
2023-04-28T09:26:04.029Z,51.08
2023-04-28T09:28:32.261Z,51.45
2023-04-28T09:30:59.320Z,51.02
2023-04-28T09:33:26.439Z,51.59
2023-04-28T09:35:53.652Z,52.53
2023-04-28T09:38:21.997Z,50.63
2023-04-28T09:41:00.137Z,51.91
2023-04-28T09:43:32.302Z,50.52
2023-04-28T09:46:05.316Z,50.80
2023-04-28T09:48:39.214Z,50.61
2023-04-28T09:51:10.986Z,51.00
2023-04-28T09:53:39.724Z,50.14
2023-04-28T09:56:08.210Z,49.86
2023-04-28T09:58:35.913Z,49.96
2023-04-28T10:01:03.215Z,49.61
2023-04-28T10:03:30.895Z,48.89
2023-04-28T10:05:58.580Z,48.80
2023-04-28T10:08:27.249Z,47.60
2023-04-28T10:10:54.798Z,47.51
2023-04-28T10:13:22.203Z,47.25
2023-04-28T10:15:50.209Z,47.49
2023-04-28T10:18:17.056Z,47.22
2023-04-28T10:20:46.069Z,47.43
2023-04-28T10:23:38.360Z,46.20
2023-04-28T10:26:05.537Z,45.59
2023-04-28T10:28:32.269Z,45.64
2023-04-28T10:31:21.536Z,45.76
2023-04-28T10:33:49.650Z,44.26
2023-04-28T10:36:54.790Z,44.58
2023-04-28T10:39:21.592Z,44.67
2023-04-28T10:41:49.284Z,43.88
2023-04-28T10:44:28.796Z,44.54
2023-04-28T10:47:13.976Z,44.43
2023-04-28T10:49:57.685Z,44.09
2023-04-28T10:52:37.843Z,44.42
2023-04-28T10:55:40.378Z,45.67
2023-04-28T10:58:16.860Z,45.34
2023-04-28T11:00:45.496Z,45.43
2023-04-28T11:03:44.515Z,44.36
2023-04-28T11:06:28.777Z,42.53
2023-04-28T11:08:57.528Z,45.63
2023-04-28T11:11:28.026Z,43.79
2023-04-28T11:14:21.101Z,43.27
2023-04-28T11:16:49.509Z,42.69
2023-04-28T11:19:18.860Z,42.41
2023-04-28T11:21:45.632Z,42.55
2023-04-28T11:24:12.736Z,43.16
2023-04-28T11:26:39.534Z,41.60
2023-04-28T11:29:06.314Z,41.97
2023-04-28T11:31:33.148Z,43.78
2023-04-28T11:34:14.503Z,45.15
2023-04-28T11:36:41.624Z,46.29
2023-04-28T11:39:09.802Z,46.34
2023-04-28T11:41:37.983Z,45.39
2023-04-28T11:45:37.859Z,46.20
2023-04-28T11:48:22.174Z,45.92
2023-04-28T11:50:48.981Z,46.36
2023-04-28T11:53:16.790Z,46.27
2023-04-28T11:55:44.035Z,45.37
2023-04-28T11:58:24.090Z,44.44
2023-04-28T12:01:13.849Z,44.95
2023-04-28T12:03:47.625Z,43.89
2023-04-28T12:06:21.100Z,43.87
2023-04-28T12:08:49.004Z,44.32
2023-04-28T12:11:20.136Z,44.33
2023-04-28T12:14:03.586Z,45.23
2023-04-28T12:16:39.278Z,46.23
2023-04-28T12:19:10.061Z,44.94
2023-04-28T12:21:40.555Z,44.37
2023-04-28T12:24:20.914Z,45.24
2023-04-28T12:26:48.786Z,45.44
2023-04-28T12:29:38.317Z,44.89
2023-04-28T12:32:09.558Z,45.07
2023-04-28T12:34:36.865Z,44.41
2023-04-28T12:37:05.979Z,44.17
2023-04-28T12:39:34.898Z,43.44
2023-04-28T12:42:02.941Z,45.02
2023-04-28T12:44:36.842Z,45.30
2023-04-28T12:47:05.038Z,45.17
2023-04-28T12:49:32.171Z,43.84
2023-04-28T12:51:59.040Z,44.42
2023-04-28T12:54:25.817Z,44.90
2023-04-28T12:56:54.535Z,44.99
2023-04-28T12:59:23.344Z,45.73
2023-04-28T13:01:50.688Z,45.43
2023-04-28T13:04:18.919Z,46.00
2023-04-28T13:06:46.712Z,44.71
2023-04-28T13:09:15.278Z,44.85
2023-04-28T13:11:42.398Z,45.05
2023-04-28T13:14:09.182Z,45.38
2023-04-28T13:16:36.048Z,45.13
2023-04-28T13:19:03.887Z,44.74
2023-04-28T13:21:31.970Z,45.13
2023-04-28T13:23:58.830Z,44.54
2023-04-28T13:26:26.894Z,42.60
2023-04-28T13:28:53.706Z,43.05
2023-04-28T13:31:21.107Z,44.78
2023-04-28T13:33:47.908Z,45.34
2023-04-28T13:36:14.746Z,46.45
2023-04-28T13:38:41.586Z,46.18
2023-04-28T13:41:08.345Z,45.95
2023-04-28T13:43:35.222Z,45.58
2023-04-28T13:46:02.148Z,45.03
2023-04-28T13:48:29.330Z,44.41
2023-04-28T13:50:56.416Z,44.72
2023-04-28T13:53:23.255Z,45.29
2023-04-28T13:55:51.435Z,46.53
2023-04-28T13:58:18.197Z,45.67
2023-04-28T14:00:45.280Z,44.83
2023-04-28T14:03:12.145Z,45.51
2023-04-28T14:05:48.912Z,46.17
2023-04-28T14:08:18.823Z,44.73
2023-04-28T14:10:48.127Z,44.38
2023-04-28T14:13:15.064Z,44.32
2023-04-28T14:15:51.327Z,44.43
2023-04-28T14:18:25.169Z,45.09
2023-04-28T14:20:52.042Z,44.86
2023-04-28T14:23:18.792Z,44.50
2023-04-28T14:25:45.536Z,44.40
2023-04-28T14:28:12.391Z,44.46
2023-04-28T14:30:39.144Z,44.26
2023-04-28T14:33:06.959Z,44.72
2023-04-28T14:35:34.664Z,43.78
2023-04-28T14:38:01.425Z,43.70
2023-04-28T14:40:28.165Z,43.20
2023-04-28T14:42:55.000Z,44.21
2023-04-28T14:45:22.147Z,43.80
2023-04-28T14:47:49.801Z,43.78
2023-04-28T14:50:16.878Z,44.89
2023-04-28T14:52:44.204Z,44.33
2023-04-28T14:55:10.992Z,43.96
2023-04-28T14:57:38.379Z,43.15
2023-04-28T15:00:07.962Z,43.78
2023-04-28T15:02:34.995Z,44.51
2023-04-28T15:05:02.297Z,44.63
2023-04-28T15:07:31.735Z,45.08
2023-04-28T15:09:59.743Z,43.88
2023-04-28T15:12:26.980Z,43.91
2023-04-28T15:14:54.075Z,44.12
2023-04-28T15:17:26.076Z,44.77
2023-04-28T15:19:52.985Z,44.28
2023-04-28T15:22:19.733Z,44.72
2023-04-28T15:24:46.728Z,45.38
2023-04-28T15:27:13.936Z,45.00
2023-04-28T15:29:40.914Z,45.07
2023-04-28T15:32:07.923Z,44.79
2023-04-28T15:34:35.292Z,44.55
2023-04-28T15:37:02.430Z,45.31
2023-04-28T15:39:29.705Z,45.23
2023-04-28T15:41:56.446Z,45.68
2023-04-28T15:44:23.207Z,45.86
2023-04-28T15:46:52.536Z,45.50
2023-04-28T15:49:19.518Z,44.19
2023-04-28T15:51:46.886Z,44.37
2023-04-28T15:54:13.661Z,44.37
2023-04-28T15:56:40.616Z,44.66
2023-04-28T15:59:07.721Z,45.19
2023-04-28T16:01:34.558Z,45.45
2023-04-28T16:04:01.769Z,45.24
2023-04-28T16:06:30.310Z,45.08
2023-04-28T16:08:57.195Z,44.79
2023-04-28T16:11:24.457Z,45.44
2023-04-28T16:13:51.445Z,45.64
2023-04-28T16:16:18.346Z,45.51
2023-04-28T16:18:45.937Z,45.60
2023-04-28T16:21:16.449Z,45.06
2023-04-28T16:23:43.365Z,44.53
2023-04-28T16:26:10.145Z,45.01
2023-04-28T16:28:36.937Z,45.06
2023-04-28T16:31:03.781Z,45.04
2023-04-28T16:33:31.060Z,45.09
2023-04-28T16:35:58.028Z,45.13
2023-04-28T16:38:24.769Z,45.16
2023-04-28T16:40:52.235Z,46.62
2023-04-28T16:43:19.119Z,46.36
2023-04-28T16:45:45.899Z,46.06
2023-04-28T16:48:15.229Z,46.11
2023-04-28T16:50:42.242Z,46.27
2023-04-28T16:53:09.018Z,46.72
2023-04-28T16:55:38.968Z,47.04
2023-04-28T16:58:06.429Z,47.07
2023-04-28T17:00:33.451Z,47.26
2023-04-28T17:03:00.748Z,47.90
2023-04-28T17:05:29.364Z,48.26
2023-04-28T17:07:57.888Z,48.32
2023-04-28T17:10:26.100Z,48.75
2023-04-28T17:12:53.024Z,48.97
2023-04-28T17:15:19.838Z,49.22
2023-04-28T17:17:49.944Z,49.45
2023-04-28T17:20:20.858Z,49.75
2023-04-28T17:22:48.734Z,50.04
2023-04-28T17:25:16.078Z,50.23
2023-04-28T17:27:43.327Z,50.82
2023-04-28T17:30:11.510Z,51.10
2023-04-28T17:32:38.386Z,51.71
2023-04-28T17:35:06.151Z,52.15
2023-04-28T17:37:33.710Z,52.26
2023-04-28T17:40:01.624Z,52.12
2023-04-28T17:42:34.606Z,52.51
2023-04-28T17:45:01.618Z,52.92
2023-04-28T17:47:28.423Z,53.14
2023-04-28T17:49:55.500Z,54.00
2023-04-28T17:52:22.648Z,54.84
2023-04-28T17:54:49.683Z,55.31
2023-04-28T17:57:17.888Z,55.27
2023-04-28T17:59:46.574Z,55.55
2023-04-28T18:02:13.622Z,55.97
2023-04-28T18:04:40.651Z,56.76
2023-04-28T18:07:07.987Z,58.12
2023-04-28T18:09:34.809Z,59.97
2023-04-28T18:12:05.377Z,61.39
2023-04-28T18:14:32.217Z,61.67
2023-04-28T18:16:59.059Z,61.95
2023-04-28T18:19:27.623Z,61.92
2023-04-28T18:21:58.152Z,61.97
2023-04-28T18:24:24.974Z,62.56
2023-04-28T18:26:51.992Z,62.87
2023-04-28T18:29:20.394Z,63.17
2023-04-28T18:31:47.283Z,63.36
2023-04-28T18:34:14.238Z,63.77
2023-04-28T18:36:41.563Z,64.81
2023-04-28T18:39:09.252Z,65.75
2023-04-28T18:41:36.496Z,66.32
2023-04-28T18:44:03.452Z,66.60
2023-04-28T18:46:30.916Z,66.71
2023-04-28T18:48:58.065Z,67.08
2023-04-28T18:51:24.882Z,67.81
2023-04-28T18:53:51.589Z,68.07
2023-04-28T18:56:18.559Z,68.26
2023-04-28T18:58:47.304Z,68.56
2023-04-28T19:01:17.860Z,69.10
2023-04-28T19:03:45.006Z,69.20
2023-04-28T19:06:12.169Z,69.41
2023-04-28T19:08:39.388Z,69.43
2023-04-28T19:11:08.274Z,69.69
2023-04-28T19:13:38.219Z,70.57
2023-04-28T19:16:05.370Z,71.41
2023-04-28T19:18:32.474Z,72.59
2023-04-28T19:21:03.012Z,73.30
2023-04-28T19:23:30.606Z,74.08
2023-04-28T19:25:58.433Z,74.55
2023-04-28T19:28:26.352Z,75.22
2023-04-28T19:30:54.141Z,75.75
2023-04-28T19:33:24.885Z,76.26
2023-04-28T19:35:56.052Z,77.15
2023-04-28T19:38:23.570Z,77.97
2023-04-28T19:40:53.827Z,78.67
2023-04-28T19:43:20.821Z,79.62
2023-04-28T19:45:47.752Z,79.62
2023-04-28T19:48:14.861Z,80.11
2023-04-28T19:50:42.339Z,80.61
2023-04-28T19:53:09.475Z,81.50
2023-04-28T19:55:36.837Z,82.16
2023-04-28T19:58:04.234Z,83.18
2023-04-28T20:00:32.550Z,84.22
2023-04-28T20:03:00.312Z,84.66
2023-04-28T20:05:27.536Z,84.80
2023-04-28T20:07:56.122Z,85.54
2023-04-28T20:10:23.887Z,86.43
2023-04-28T20:12:50.956Z,87.52
2023-04-28T20:15:18.541Z,88.01
2023-04-28T20:17:46.236Z,88.32
2023-04-28T20:20:13.504Z,89.15
2023-04-28T20:22:43.328Z,89.59
2023-04-28T20:25:10.811Z,89.95
2023-04-28T20:27:37.863Z,90.54
2023-04-28T20:30:05.642Z,91.15
2023-04-28T20:32:32.686Z,91.72
2023-04-28T20:34:59.758Z,91.92
2023-04-28T20:37:26.677Z,92.17
2023-04-28T20:39:53.701Z,92.36
2023-04-28T20:42:20.561Z,92.55
2023-04-28T20:44:47.304Z,92.74
2023-04-28T20:47:14.300Z,93.11
2023-04-28T20:49:42.326Z,93.35
2023-04-28T20:52:09.342Z,93.99
2023-04-28T20:54:36.545Z,94.23
2023-04-28T20:57:05.290Z,94.35
2023-04-28T20:59:32.801Z,94.43
2023-04-28T21:02:00.489Z,94.56
2023-04-28T21:04:28.445Z,94.81
2023-04-28T21:06:55.652Z,95.34
2023-04-28T21:09:25.293Z,95.82
2023-04-28T21:11:52.689Z,96.12
2023-04-28T21:14:20.328Z,96.42
2023-04-28T21:16:47.357Z,96.93
2023-04-28T21:19:14.236Z,97.43
2023-04-28T21:21:41.128Z,97.93
2023-04-28T21:24:09.290Z,98.58
2023-04-28T21:26:37.034Z,99.10
2023-04-28T21:29:03.893Z,99.54
2023-04-28T21:31:31.348Z,100.00
2023-04-28T21:33:58.216Z,100.00
2023-04-28T21:36:25.064Z,100.00
2023-04-28T21:38:51.958Z,100.00
2023-04-28T21:41:18.740Z,100.00
2023-04-28T21:43:46.044Z,100.00
2023-04-28T21:46:13.244Z,100.00
2023-04-28T21:48:40.130Z,100.00
2023-04-28T21:51:07.065Z,100.00
2023-04-28T21:53:34.535Z,100.00
2023-04-28T21:56:02.113Z,100.00
2023-04-28T21:58:28.865Z,100.00
2023-04-28T22:00:55.624Z,100.00
2023-04-28T22:03:22.951Z,100.00
2023-04-28T22:05:49.916Z,100.00
2023-04-28T22:08:17.225Z,100.00
2023-04-28T22:10:45.625Z,100.00
2023-04-28T22:13:13.122Z,100.00
2023-04-28T22:15:40.168Z,100.00
2023-04-28T22:18:08.301Z,100.00
2023-04-28T22:20:35.972Z,100.00
2023-04-28T22:23:02.793Z,100.00
2023-04-28T22:25:29.636Z,100.00
2023-04-28T22:27:56.500Z,100.00
2023-04-28T22:30:25.813Z,100.00
2023-04-28T22:32:53.515Z,100.00
2023-04-28T22:35:20.443Z,100.00
2023-04-28T22:37:47.294Z,100.00
2023-04-28T22:40:14.137Z,100.00
2023-04-28T22:42:41.526Z,100.00
2023-04-28T22:45:10.274Z,100.00
2023-04-28T22:47:38.508Z,100.00
2023-04-28T22:50:06.760Z,100.00
2023-04-28T22:52:34.197Z,100.00
2023-04-28T22:55:01.193Z,100.00
2023-04-28T22:57:28.246Z,100.00
2023-04-28T22:59:55.483Z,100.00
2023-04-28T23:02:23.243Z,100.00
2023-04-28T23:04:50.500Z,100.00
2023-04-28T23:07:17.391Z,100.00
2023-04-28T23:09:44.142Z,100.00
2023-04-28T23:12:11.013Z,100.00
2023-04-28T23:14:38.305Z,100.00
2023-04-28T23:17:05.333Z,100.00
2023-04-28T23:19:32.250Z,100.00
2023-04-28T23:21:59.037Z,100.00
2023-04-28T23:24:27.259Z,100.00
2023-04-28T23:26:54.334Z,100.00
2023-04-28T23:29:21.141Z,100.00
2023-04-28T23:31:52.757Z,100.00
2023-04-28T23:34:19.926Z,100.00
2023-04-28T23:36:46.702Z,100.00
2023-04-28T23:39:13.672Z,100.00
2023-04-28T23:41:41.211Z,100.00
2023-04-28T23:44:08.390Z,100.00
2023-04-28T23:46:35.211Z,100.00
2023-04-28T23:49:02.293Z,100.00
2023-04-28T23:51:30.268Z,100.00
2023-04-28T23:53:57.086Z,100.00
2023-04-28T23:56:23.794Z,100.00
2023-04-28T23:58:51.190Z,100.00
